Time;durP1;ratioP1;P1;durP2;ratioP2;P2;SDS_P1;SDS_P2;PMS_P1;PMS_P2;Temp;Humidity;BMP_temperature;BMP_pressure;BME280_temperature;BME280_humidity;BME280_pressure;Samples;Min_cycle;Max_cycle;Signal;HPM_P1;HPM_P2
2021/03/13 00:06:01;;;;;;;8.02;2.25;;;3.70;99.90;;;;;;6146713;23;20045;-91
2021/03/13 00:12:42;;;;;;;4.35;1.80;;;3.90;99.90;;;;;;6135026;23;20117;-89
2021/03/13 00:15:18;;;;;;;3.42;1.85;;;3.90;99.90;;;;;;6145163;23;20123;-89
2021/03/13 00:18:28;;;;;;;;;;;;;;;;;;;;;
2021/03/13 00:22:19;;;;;;;;;;;;;;;;;;;;;
2021/03/13 00:54:59;;;;;;;;;;;;;;;;;;;;;
2021/03/13 00:57:38;;;;;;;5.32;2.35;;;4.00;99.90;;;;;;5151655;27;20051;-92
2021/03/13 01:00:32;;;;;;;;;;;;;;;;;;;;;
2021/03/13 01:03:05;;;;;;;2.72;1.52;;;3.90;99.90;;;;;;5147536;27;20050;-91
2021/03/13 01:05:56;;;;;;;2.83;1.35;;;3.90;99.90;;;;;;5150075;27;20074;-92
2021/03/13 01:08:48;;;;;;;2.55;1.30;;;3.80;99.90;;;;;;5118984;27;20083;-91
2021/03/13 01:11:38;;;;;;;1.95;1.20;;;3.80;99.90;;;;;;5147404;27;20085;-91
2021/03/13 01:14:25;;;;;;;2.33;1.40;;;3.70;99.90;;;;;;5156541;27;20433;-91
2021/03/13 01:17:06;;;;;;;2.53;1.50;;;3.60;99.90;;;;;;5139034;27;20178;-91
2021/03/13 01:20:05;;;;;;;;;;;;;;;;;;;;;
2021/03/13 01:23:03;;;;;;;3.85;1.70;;;3.50;99.90;;;;;;5055675;28;20056;-89
2021/03/13 01:25:41;;;;;;;4.57;2.35;;;3.50;99.90;;;;;;5065907;28;20053;-90
2021/03/13 01:32:53;;;;;;;5.18;2.53;;;3.40;99.90;;;;;;4967912;28;20059;-90
2021/03/13 01:35:52;;;;;;;3.95;2.63;;;3.30;99.90;;;;;;5017467;28;20057;-90
2021/03/13 01:38:25;;;;;;;6.07;2.30;;;3.30;99.90;;;;;;5027055;28;20069;-89
2021/03/13 01:41:09;;;;;;;5.47;2.60;;;3.40;99.90;;;;;;5003854;28;20050;-91
2021/03/13 01:43:46;;;;;;;9.93;3.28;;;3.40;99.90;;;;;;5058675;28;20044;-90
2021/03/13 01:46:19;;;;;;;6.82;3.53;;;3.40;99.90;;;;;;5080924;28;20413;-89
2021/03/13 01:49:00;;;;;;;8.32;2.67;;;3.40;99.90;;;;;;5121687;27;20059;-91
2021/03/13 01:51:47;;;;;;;7.35;2.20;;;3.60;99.90;;;;;;5161385;27;20039;-91
2021/03/13 01:54:17;;;;;;;7.15;2.30;;;3.60;99.90;;;;;;5152712;27;20102;-92
2021/03/13 01:56:48;;;;;;;5.07;2.35;;;3.60;99.90;;;;;;5139907;27;20050;-92
2021/03/13 01:59:18;;;;;;;6.85;2.20;;;3.60;99.90;;;;;;5121165;28;20398;-89
2021/03/13 02:01:58;;;;;;;;;;;;;;;;;;;;;
2021/03/13 02:04:51;;;;;;;10.07;2.72;;;3.70;99.90;;;;;;5097411;28;20424;-90
2021/03/13 02:07:49;;;;;;;7.32;2.45;;;3.70;99.90;;;;;;5089719;28;20120;-90
2021/03/13 02:13:49;;;;;;;9.05;2.33;;;3.70;99.90;;;;;;5101479;28;20083;-90
2021/03/13 02:16:45;;;;;;;7.38;2.50;;;3.80;99.90;;;;;;5098410;28;20047;-91
2021/03/13 02:19:52;;;;;;;6.97;2.47;;;3.70;99.90;;;;;;5123121;27;20055;-90
2021/03/13 02:22:51;;;;;;;8.25;2.63;;;3.70;99.90;;;;;;5095517;28;20130;-89
2021/03/13 02:25:28;;;;;;;5.95;1.80;;;3.80;99.90;;;;;;5077781;28;20105;-90
2021/03/13 02:28:16;;;;;;;5.47;2.20;;;3.80;99.90;;;;;;5099291;28;20078;-92
2021/03/13 02:30:55;;;;;;;6.25;2.70;;;3.80;99.90;;;;;;5104603;28;20051;-92
2021/03/13 02:33:44;;;;;;;10.23;2.55;;;3.90;99.90;;;;;;5107681;28;20117;-91
2021/03/13 02:36:19;;;;;;;5.82;1.77;;;4.00;99.90;;;;;;5098094;28;20048;-90
2021/03/13 02:39:17;;;;;;;7.55;2.45;;;4.10;99.90;;;;;;5076926;28;20064;-90
2021/03/13 02:42:51;;;;;;;;;;;;;;;;;;;;;
2021/03/13 02:45:49;;;;;;;9.15;2.00;;;4.40;99.90;;;;;;5037591;28;20071;-91
2021/03/13 02:48:50;;;;;;;;;;;;;;;;;;;;;
2021/03/13 02:51:38;;;;;;;6.55;2.08;;;4.30;99.90;;;;;;5102844;28;20104;-89
2021/03/13 02:54:20;;;;;;;;;;;;;;;;;;;;;
2021/03/13 02:56:48;;;;;;;6.93;2.13;;;4.30;99.90;;;;;;5107776;28;20044;-91
2021/03/13 02:59:26;;;;;;;7.70;1.85;;;4.30;99.90;;;;;;5112702;28;20043;-89
2021/03/13 03:02:03;;;;;;;;;;;4.30;99.90;;;;;;5097235;28;20075;-90
2021/03/13 03:04:59;;;;;;;6.45;2.05;;;4.40;99.90;;;;;;5130408;28;19922;-88
2021/03/13 03:07:40;;;;;;;;;;;;;;;;;;;;;
2021/03/13 03:10:23;;;;;;;;;;;;;;;;;;;;;
2021/03/13 03:13:18;;;;;;;3.50;1.70;;;4.60;99.90;;;;;;5096574;28;20048;-90
2021/03/13 03:15:54;;;;;;;6.43;1.80;;;4.60;99.90;;;;;;5081041;28;20075;-90
2021/03/13 03:18:27;;;;;;;4.55;1.92;;;4.70;99.90;;;;;;5098147;28;20040;-92
2021/03/13 03:21:00;;;;;;;;;;;4.70;99.90;;;;;;5080114;28;20056;-91
2021/03/13 03:23:43;;;;;;;7.13;1.77;;;4.80;99.90;;;;;;5082330;28;19955;-89
2021/03/13 03:26:25;;;;;;;8.05;2.13;;;4.80;99.90;;;;;;5098090;28;20040;-90
2021/03/13 03:28:55;;;;;;;7.82;2.38;;;4.90;99.90;;;;;;5076903;28;20127;-90
2021/03/13 03:31:52;;;;;;;4.20;1.60;;;4.90;99.90;;;;;;5097745;28;20127;-90
2021/03/13 03:34:56;;;;;;;4.90;1.60;;;5.00;99.90;;;;;;5104102;28;20140;-92
2021/03/13 03:37:37;;;;;;;4.47;1.40;;;4.90;99.90;;;;;;5096244;28;20096;-89
2021/03/13 03:40:27;;;;;;;6.13;1.40;;;5.00;99.90;;;;;;5079274;28;20048;-91
2021/03/13 03:43:14;;;;;;;4.57;1.63;;;4.90;99.90;;;;;;5081700;28;20044;-89
2021/03/13 03:45:55;;;;;;;4.93;1.60;;;5.00;99.90;;;;;;5087365;28;20094;-89
2021/03/13 03:48:47;;;;;;;5.35;1.58;;;5.00;99.90;;;;;;5099084;28;20048;-89
2021/03/13 03:51:32;;;;;;;4.80;1.40;;;5.10;99.90;;;;;;5080524;28;20062;-89
2021/03/13 03:54:15;;;;;;;5.00;1.65;;;5.20;99.90;;;;;;5118142;28;20412;-88
2021/03/13 03:56:48;;;;;;;3.75;1.15;;;5.20;99.90;;;;;;5128261;28;20093;-91
2021/03/13 03:59:18;;;;;;;4.00;1.52;;;5.30;99.90;;;;;;5102377;28;20481;-90
2021/03/13 04:02:05;;;;;;;3.00;1.65;;;5.20;99.90;;;;;;5085970;28;20048;-89
2021/03/13 04:04:53;;;;;;;4.28;1.17;;;5.30;99.90;;;;;;5081209;28;20052;-91
2021/03/13 04:07:38;;;;;;;6.55;1.60;;;5.20;99.90;;;;;;5099952;28;20062;-91
2021/03/13 04:10:20;;;;;;;4.85;1.35;;;5.30;99.90;;;;;;5083763;28;20044;-90
2021/03/13 04:12:53;;;;;;;8.00;1.65;;;5.30;99.90;;;;;;5100144;28;20048;-89
2021/03/13 04:15:47;;;;;;;3.00;1.20;;;5.30;99.90;;;;;;5081971;28;20479;-91
2021/03/13 04:18:21;;;;;;;2.55;1.10;;;5.30;99.90;;;;;;5098554;28;20056;-91
2021/03/13 04:20:58;;;;;;;4.70;1.38;;;5.30;99.90;;;;;;5101775;28;20062;-91
2021/03/13 04:23:44;;;;;;;4.30;1.25;;;5.30;99.90;;;;;;5102755;28;20066;-90
2021/03/13 04:26:40;;;;;;;5.82;1.83;;;5.20;99.90;;;;;;5072908;28;20136;-92
2021/03/13 04:29:32;;;;;;;4.68;1.35;;;5.30;99.90;;;;;;4960267;29;20430;-89
2021/03/13 04:32:29;;;;;;;4.80;1.55;;;5.40;99.90;;;;;;4957697;29;20142;-91
2021/03/13 04:35:07;;;;;;;3.08;1.20;;;5.50;99.90;;;;;;4941155;29;20130;-91
2021/03/13 04:37:52;;;;;;;2.67;1.20;;;5.50;99.90;;;;;;4977062;28;20039;-90
2021/03/13 04:40:57;;;;;;;3.45;1.30;;;5.50;99.90;;;;;;4956846;29;20058;-91
2021/03/13 04:43:37;;;;;;;;;;;;;;;;;;;;;
2021/03/13 04:46:21;;;;;;;3.28;1.20;;;5.30;99.90;;;;;;4920674;29;20084;-89
2021/03/13 04:48:56;;;;;;;4.30;1.50;;;5.30;99.90;;;;;;4903231;29;20049;-91
2021/03/13 04:51:52;;;;;;;4.43;1.10;;;5.40;99.90;;;;;;4885205;29;20057;-89
2021/03/13 04:54:31;;;;;;;;;;;;;;;;;;;;;
2021/03/13 04:57:30;;;;;;;1.52;1.05;;;5.40;99.90;;;;;;4900776;29;20063;-90
2021/03/13 05:00:09;;;;;;;3.53;1.30;;;5.40;99.90;;;;;;4934056;28;20446;-90
2021/03/13 05:02:45;;;;;;;3.78;1.55;;;5.50;99.90;;;;;;4997452;28;20050;-91
2021/03/13 05:05:21;;;;;;;3.83;1.20;;;5.40;99.90;;;;;;4999263;28;20050;-91
2021/03/13 05:07:58;;;;;;;3.65;1.25;;;5.50;99.90;;;;;;4997886;28;20046;-89
2021/03/13 05:11:12;;;;;;;5.78;1.55;;;5.60;99.90;;;;;;4998917;28;20054;-90
2021/03/13 05:13:49;;;;;;;3.47;1.42;;;5.60;99.90;;;;;;4939284;29;20052;-91
2021/03/13 05:17:26;;;;;;;;;;;;;;;;;;;;;
2021/03/13 05:20:08;;;;;;;4.05;1.27;;;5.70;99.90;;;;;;4976579;28;20055;-90
2021/03/13 05:22:50;;;;;;;5.38;1.45;;;5.70;99.90;;;;;;4986280;28;20083;-88
2021/03/13 05:25:50;;;;;;;4.05;1.20;;;5.80;99.90;;;;;;5053682;28;20044;-90
2021/03/13 05:28:24;;;;;;;2.45;1.50;;;5.80;99.90;;;;;;5088222;28;20517;-89
2021/03/13 05:30:51;;;;;;;6.75;1.42;;;5.80;99.90;;;;;;5069198;28;20063;-89
2021/03/13 05:33:21;;;;;;;1.60;1.05;;;5.80;99.90;;;;;;5085248;28;20113;-89
2021/03/13 05:35:55;;;;;;;3.83;1.40;;;5.90;99.90;;;;;;5069642;28;20060;-89
2021/03/13 05:38:26;;;;;;;1.90;1.10;;;5.90;99.90;;;;;;5075401;28;20446;-90
2021/03/13 05:40:56;;;;;;;6.75;1.65;;;5.90;99.90;;;;;;5071994;28;20056;-91
2021/03/13 05:43:40;;;;;;;3.47;1.40;;;5.90;99.90;;;;;;5100632;28;20044;-91
2021/03/13 05:46:22;;;;;;;4.78;1.65;;;5.80;99.90;;;;;;5071974;28;20052;-89
2021/03/13 05:48:55;;;;;;;7.10;1.80;;;5.90;99.90;;;;;;5075079;28;20098;-89
2021/03/13 05:51:25;;;;;;;3.25;1.48;;;5.90;99.90;;;;;;5060489;28;20383;-89
2021/03/13 05:53:52;;;;;;;7.15;1.63;;;5.90;99.90;;;;;;5095376;28;20045;-86
2021/03/13 05:56:20;;;;;;;7.38;1.50;;;6.00;99.90;;;;;;5089952;28;20049;-88
2021/03/13 05:58:47;;;;;;;6.93;1.58;;;6.00;99.90;;;;;;5068557;28;20135;-89
2021/03/13 06:01:14;;;;;;;10.38;1.85;;;6.00;99.90;;;;;;5081198;28;20051;-87
2021/03/13 06:03:41;;;;;;;6.60;1.85;;;6.10;99.90;;;;;;5063608;28;20047;-87
2021/03/13 06:06:09;;;;;;;8.77;1.80;;;6.10;99.90;;;;;;5057665;28;20083;-87
2021/03/13 06:08:38;;;;;;;4.15;1.30;;;6.10;99.90;;;;;;5081187;28;20382;-86
2021/03/13 06:11:04;;;;;;;4.80;1.40;;;6.20;99.90;;;;;;5070371;28;20079;-88
2021/03/13 06:13:33;;;;;;;5.68;1.65;;;6.10;99.90;;;;;;5067771;28;20080;-89
2021/03/13 06:16:03;;;;;;;2.67;1.30;;;6.10;99.90;;;;;;5078048;28;20067;-88
2021/03/13 06:19:01;;;;;;;6.70;1.90;;;6.20;99.90;;;;;;5087524;28;20122;-89
2021/03/13 06:21:37;;;;;;;6.50;1.60;;;6.20;99.90;;;;;;5071789;28;20048;-84
2021/03/13 06:24:21;;;;;;;7.65;2.03;;;6.30;99.90;;;;;;5102203;28;20067;-88
2021/03/13 06:27:08;;;;;;;7.75;1.60;;;6.40;99.90;;;;;;5065995;28;20049;-90
2021/03/13 06:29:45;;;;;;;4.28;1.48;;;6.40;99.90;;;;;;5067942;28;20059;-89
2021/03/13 06:32:14;;;;;;;6.10;1.48;;;6.40;99.90;;;;;;5088518;28;20080;-87
2021/03/13 06:35:19;;;;;;;6.45;1.75;;;6.50;99.90;;;;;;5087692;28;20048;-88
2021/03/13 06:37:47;;;;;;;4.40;1.17;;;6.50;99.90;;;;;;5084035;28;20188;-88
2021/03/13 06:40:36;;;;;;;6.75;2.08;;;6.50;99.90;;;;;;5090365;28;20048;-87
2021/03/13 06:43:20;;;;;;;5.60;1.92;;;6.50;99.90;;;;;;5096953;28;20049;-90
2021/03/13 06:46:16;;;;;;;4.10;1.30;;;6.70;99.90;;;;;;5091242;28;20040;-88
2021/03/13 06:48:47;;;;;;;4.93;1.50;;;6.70;99.90;;;;;;5092444;28;20083;-86
2021/03/13 06:51:38;;;;;;;3.85;1.33;;;6.80;99.90;;;;;;5073456;28;20049;-88
2021/03/13 06:54:06;;;;;;;4.95;1.30;;;6.80;99.90;;;;;;5070869;28;20152;-87
2021/03/13 06:57:00;;;;;;;5.55;1.30;;;6.80;99.90;;;;;;5065694;28;20094;-88
2021/03/13 06:59:41;;;;;;;6.43;1.40;;;6.90;99.90;;;;;;5091216;28;20435;-89
2021/03/13 07:02:11;;;;;;;5.82;1.20;;;6.80;99.90;;;;;;5097861;28;20048;-88
2021/03/13 07:04:47;;;;;;;3.88;1.60;;;6.80;99.90;;;;;;5085925;28;20059;-88
2021/03/13 07:07:29;;;;;;;3.60;1.00;;;6.80;99.90;;;;;;5087555;28;20048;-86
2021/03/13 07:09:58;;;;;;;2.83;1.20;;;6.90;99.90;;;;;;5091602;28;20044;-88
2021/03/13 07:12:56;;;;;;;4.38;1.30;;;7.00;99.90;;;;;;5100555;28;20561;-86
2021/03/13 07:15:29;;;;;;;3.13;1.35;;;7.00;99.90;;;;;;5081216;28;20033;-87
2021/03/13 07:18:01;;;;;;;3.15;1.30;;;7.10;99.90;;;;;;5092236;28;20060;-85
2021/03/13 07:20:40;;;;;;;1.75;1.33;;;7.20;99.90;;;;;;5099666;28;20028;-86
2021/03/13 07:23:06;;;;;;;2.10;1.58;;;7.30;99.90;;;;;;5101069;28;20056;-85
2021/03/13 07:25:41;;;;;;;4.93;1.60;;;7.40;99.90;;;;;;5086025;28;20040;-89
2021/03/13 07:28:09;;;;;;;2.35;1.23;;;7.70;99.90;;;;;;5083162;28;20386;-88
2021/03/13 07:34:39;;;;;;;3.03;1.23;;;7.70;99.90;;;;;;4973305;29;20141;-89
2021/03/13 07:37:41;;;;;;;1.45;1.08;;;7.50;99.90;;;;;;4966144;28;20087;-87
2021/03/13 07:49:17;;;;;;;2.53;1.02;;;7.40;99.90;;;;;;4910767;29;20051;-88
2021/03/13 07:51:44;;;;;;;1.15;1.05;;;7.40;99.90;;;;;;4926070;29;20079;-85
2021/03/13 07:54:13;;;;;;;3.95;1.20;;;7.50;99.90;;;;;;4997636;28;20056;-85
2021/03/13 07:56:44;;;;;;;2.60;0.90;;;7.40;99.90;;;;;;5075079;28;20056;-85
2021/03/13 07:59:18;;;;;;;1.92;1.10;;;7.50;99.90;;;;;;5051090;28;20052;-88
2021/03/13 08:01:45;;;;;;;1.08;0.98;;;7.40;99.90;;;;;;5065425;28;20082;-86
2021/03/13 08:04:38;;;;;;;8.25;1.48;;;7.50;99.90;;;;;;5043821;28;20103;-86
2021/03/13 08:07:07;;;;;;;3.72;1.05;;;7.90;99.90;;;;;;5060529;28;20136;-87
2021/03/13 08:09:42;;;;;;;0.93;0.80;;;8.10;99.90;;;;;;5071418;28;20042;-86
2021/03/13 08:12:10;;;;;;;3.65;1.10;;;8.30;99.90;;;;;;5031148;28;20060;-87
2021/03/13 08:14:41;;;;;;;1.67;0.95;;;8.30;99.90;;;;;;5058391;28;20455;-86
2021/03/13 08:17:10;;;;;;;4.20;1.00;;;8.30;98.00;;;;;;5067388;28;20063;-88
2021/03/13 08:19:45;;;;;;;1.75;0.88;;;8.40;99.90;;;;;;5058056;28;20430;-87
2021/03/13 08:22:17;;;;;;;1.00;0.93;;;8.60;94.50;;;;;;5061258;28;20077;-89
2021/03/13 08:25:24;;;;;;;2.85;0.90;;;8.60;92.60;;;;;;5041462;28;20045;-88
2021/03/13 08:27:50;;;;;;;2.47;1.00;;;8.80;93.80;;;;;;5058876;28;20040;-88
2021/03/13 08:30:28;;;;;;;1.45;0.93;;;9.00;90.80;;;;;;5039355;28;20055;-89
2021/03/13 08:33:09;;;;;;;3.47;1.00;;;9.30;86.90;;;;;;5057196;28;20250;-87
2021/03/13 08:35:40;;;;;;;3.53;1.02;;;9.20;85.60;;;;;;5076247;28;20056;-88
2021/03/13 08:38:07;;;;;;;4.88;1.20;;;9.20;83.70;;;;;;5083560;28;20061;-85
2021/03/13 08:40:47;;;;;;;1.52;0.90;;;9.30;83.70;;;;;;5085464;28;20104;-86
2021/03/13 08:43:59;;;;;;;1.75;1.00;;;9.30;82.40;;;;;;5056078;28;20045;-88
2021/03/13 08:46:45;;;;;;;3.33;0.98;;;9.40;82.00;;;;;;5021890;28;20057;-86
2021/03/13 08:49:32;;;;;;;2.65;1.02;;;9.20;81.50;;;;;;5062016;28;20087;-85
2021/03/13 08:52:07;;;;;;;3.53;1.20;;;9.20;84.90;;;;;;5064977;28;20063;-88
2021/03/13 08:54:40;;;;;;;2.75;1.02;;;9.10;83.30;;;;;;5041430;28;20078;-87
2021/03/13 08:57:18;;;;;;;1.27;1.10;;;9.10;84.20;;;;;;5066453;28;20056;-85
2021/03/13 09:00:17;;;;;;;4.90;1.20;;;9.20;83.90;;;;;;5059141;28;20048;-87
2021/03/13 09:02:54;;;;;;;3.05;1.23;;;9.10;82.70;;;;;;5038026;28;20409;-85
2021/03/13 09:05:25;;;;;;;2.53;0.93;;;9.20;82.30;;;;;;5048261;28;20045;-88
2021/03/13 09:07:54;;;;;;;5.35;1.20;;;9.30;79.80;;;;;;5049189;28;20042;-86
2021/03/13 09:10:24;;;;;;;2.63;1.15;;;9.50;79.60;;;;;;5032669;28;20107;-86
2021/03/13 09:12:51;;;;;;;2.03;1.02;;;9.60;77.10;;;;;;5064504;28;20045;-87
2021/03/13 09:15:20;;;;;;;1.45;0.93;;;9.40;79.10;;;;;;5043880;28;20041;-89
2021/03/13 09:17:46;;;;;;;3.47;1.02;;;9.30;81.10;;;;;;5033579;28;20461;-84
2021/03/13 09:20:18;;;;;;;2.47;1.30;;;9.30;79.60;;;;;;5047860;28;20059;-84
2021/03/13 09:22:47;;;;;;;2.50;0.80;;;9.20;79.00;;;;;;5061733;28;20052;-87
2021/03/13 09:25:24;;;;;;;1.17;0.90;;;9.10;79.40;;;;;;5074398;28;20174;-86
2021/03/13 09:27:53;;;;;;;2.15;0.88;;;9.00;79.10;;;;;;5056215;28;20045;-85
2021/03/13 09:30:25;;;;;;;1.77;0.90;;;9.20;81.20;;;;;;5048740;28;20057;-85
2021/03/13 09:32:53;;;;;;;0.95;0.70;;;9.20;78.90;;;;;;5052999;28;20102;-87
2021/03/13 09:35:23;;;;;;;1.63;0.90;;;9.30;80.20;;;;;;5039666;28;20463;-87
2021/03/13 09:37:52;;;;;;;2.05;0.93;;;9.30;79.50;;;;;;5038311;28;20085;-88
2021/03/13 09:40:22;;;;;;;2.03;0.90;;;9.30;80.50;;;;;;5051262;28;20334;-88
2021/03/13 09:42:50;;;;;;;6.63;1.13;;;9.20;80.40;;;;;;5055590;28;20048;-86
2021/03/13 09:45:26;;;;;;;1.20;0.88;;;9.10;81.40;;;;;;5036431;28;20057;-88
2021/03/13 09:47:58;;;;;;;4.20;1.15;;;9.20;80.60;;;;;;5061483;28;20423;-88
2021/03/13 09:50:38;;;;;;;4.97;1.30;;;9.30;80.60;;;;;;5068852;28;20045;-85
2021/03/13 09:53:10;;;;;;;3.17;1.10;;;9.30;80.90;;;;;;5042234;28;20053;-91
2021/03/13 09:55:41;;;;;;;2.85;0.70;;;9.30;82.90;;;;;;5071901;28;20514;-87
2021/03/13 09:58:07;;;;;;;5.05;1.10;;;9.30;81.80;;;;;;5050436;28;20147;-90
2021/03/13 10:00:42;;;;;;;1.77;0.88;;;9.20;85.40;;;;;;5070031;28;20077;-87
2021/03/13 10:03:15;;;;;;;3.83;1.85;;;9.00;84.40;;;;;;5045742;28;20120;-86
2021/03/13 10:05:54;;;;;;;5.53;1.27;;;9.00;86.00;;;;;;5065695;28;20049;-86
2021/03/13 10:08:22;;;;;;;4.28;1.17;;;9.10;87.80;;;;;;5032545;28;20049;-88
2021/03/13 10:10:56;;;;;;;0.95;0.93;;;9.00;86.70;;;;;;5009107;28;20127;-87
2021/03/13 10:13:24;;;;;;;7.18;3.25;;;9.10;88.20;;;;;;5055990;28;20056;-84
2021/03/13 10:15:50;;;;;;;1.95;1.08;;;9.10;87.80;;;;;;5037926;28;20041;-88
2021/03/13 10:18:27;;;;;;;1.92;0.93;;;9.20;90.50;;;;;;5047374;28;20109;-90
2021/03/13 10:21:01;;;;;;;1.92;0.90;;;9.10;88.90;;;;;;5041415;28;20496;-87
2021/03/13 10:23:41;;;;;;;4.38;0.90;;;9.20;89.90;;;;;;5020432;28;20140;-88
2021/03/13 10:26:29;;;;;;;4.80;0.98;;;9.20;89.90;;;;;;5052456;28;20789;-87
2021/03/13 10:29:10;;;;;;;2.65;1.30;;;9.20;87.30;;;;;;5049453;28;20060;-85
2021/03/13 10:31:42;;;;;;;0.93;0.80;;;9.10;88.10;;;;;;5042436;28;20061;-90
2021/03/13 10:34:14;;;;;;;1.88;0.90;;;9.10;87.30;;;;;;5052435;28;20060;-89
2021/03/13 10:36:51;;;;;;;2.47;0.85;;;9.20;87.50;;;;;;5061900;28;20622;-88
2021/03/13 10:39:18;;;;;;;1.92;1.35;;;9.30;86.70;;;;;;5039212;28;20528;-90
2021/03/13 10:41:51;;;;;;;5.05;1.00;;;9.20;87.30;;;;;;5026836;28;20103;-86
2021/03/13 10:44:18;;;;;;;4.13;0.70;;;9.30;84.20;;;;;;5057183;28;20079;-86
2021/03/13 10:46:45;;;;;;;3.67;1.23;;;9.20;83.50;;;;;;5065869;28;20063;-88
2021/03/13 10:49:12;;;;;;;1.42;0.90;;;9.20;86.10;;;;;;5065971;28;20060;-88
2021/03/13 10:51:46;;;;;;;1.83;0.82;;;9.30;86.30;;;;;;5039313;28;20120;-88
2021/03/13 10:54:21;;;;;;;2.50;1.10;;;9.30;85.60;;;;;;5043679;28;20597;-86
2021/03/13 10:56:49;;;;;;;1.33;1.10;;;9.40;85.70;;;;;;5043870;28;20057;-86
2021/03/13 10:59:33;;;;;;;6.18;1.13;;;9.40;82.30;;;;;;5056417;28;20068;-88
2021/03/13 11:02:14;;;;;;;3.65;0.85;;;9.40;81.00;;;;;;5045871;28;20114;-88
2021/03/13 11:04:45;;;;;;;3.00;1.02;;;9.40;83.20;;;;;;5048127;28;20041;-88
2021/03/13 11:07:14;;;;;;;2.28;0.93;;;9.50;80.30;;;;;;5039127;28;20049;-90
2021/03/13 11:09:45;;;;;;;3.92;0.80;;;9.40;80.80;;;;;;5060080;28;20387;-87
2021/03/13 11:12:12;;;;;;;1.80;0.80;;;9.50;81.10;;;;;;5044623;28;20116;-87
2021/03/13 11:14:46;;;;;;;3.10;0.73;;;9.50;80.50;;;;;;5032440;28;20592;-88
2021/03/13 11:17:12;;;;;;;1.70;0.77;;;9.50;79.40;;;;;;5056288;28;20064;-86
2021/03/13 11:19:45;;;;;;;1.00;0.88;;;9.50;78.20;;;;;;5056329;28;20051;-88
2021/03/13 11:22:12;;;;;;;1.88;1.35;;;9.50;78.10;;;;;;5062389;28;20060;-87
2021/03/13 11:24:39;;;;;;;1.95;0.90;;;9.50;79.20;;;;;;5057434;28;20049;-88
2021/03/13 11:27:07;;;;;;;1.75;1.17;;;9.60;77.40;;;;;;5037045;28;20052;-88
2021/03/13 11:29:44;;;;;;;2.58;1.02;;;9.60;78.70;;;;;;5045263;28;20060;-89
2021/03/13 11:32:13;;;;;;;4.00;1.45;;;9.60;80.30;;;;;;5053480;28;20159;-87
2021/03/13 11:34:40;;;;;;;1.10;1.05;;;9.60;80.70;;;;;;5029593;28;20128;-89
2021/03/13 11:37:07;;;;;;;6.15;1.30;;;9.60;79.40;;;;;;5059615;28;20072;-89
2021/03/13 11:39:34;;;;;;;1.40;0.73;;;9.70;78.80;;;;;;5055444;28;20057;-89
2021/03/13 11:42:02;;;;;;;2.00;0.70;;;9.60;78.00;;;;;;5051055;28;20064;-88
2021/03/13 11:44:29;;;;;;;3.65;1.15;;;9.70;78.00;;;;;;5036034;28;20113;-86
2021/03/13 11:46:55;;;;;;;2.63;0.88;;;9.70;76.70;;;;;;5059210;28;20428;-85
2021/03/13 11:49:22;;;;;;;2.15;0.88;;;9.80;76.70;;;;;;5054771;28;20040;-88
2021/03/13 11:51:48;;;;;;;0.80;0.80;;;9.80;77.90;;;;;;5067538;28;20056;-86
2021/03/13 11:54:14;;;;;;;1.88;1.00;;;9.80;76.40;;;;;;5034675;28;20368;-88
2021/03/13 11:56:44;;;;;;;2.55;0.90;;;9.80;76.90;;;;;;5037116;28;20054;-89
2021/03/13 11:59:11;;;;;;;2.53;1.10;;;9.70;76.90;;;;;;5036822;28;20037;-87
2021/03/13 12:01:38;;;;;;;1.95;0.90;;;9.70;76.20;;;;;;5053205;28;20052;-87
2021/03/13 12:04:10;;;;;;;3.35;1.05;;;9.70;76.90;;;;;;5066235;28;20049;-86
2021/03/13 12:06:44;;;;;;;1.02;0.60;;;9.70;78.30;;;;;;5039254;28;20175;-90
2021/03/13 12:09:10;;;;;;;1.98;0.80;;;9.60;79.50;;;;;;5064397;28;20051;-88
2021/03/13 12:11:42;;;;;;;1.25;0.98;;;9.60;80.20;;;;;;5066439;28;20123;-88
2021/03/13 12:14:11;;;;;;;4.03;0.73;;;9.50;84.20;;;;;;5062660;28;20077;-88
2021/03/13 12:16:39;;;;;;;2.53;0.82;;;9.30;88.30;;;;;;5038770;28;20055;-87
2021/03/13 12:19:06;;;;;;;4.80;1.15;;;9.20;93.60;;;;;;5033469;28;20289;-86
2021/03/13 12:21:35;;;;;;;3.10;1.13;;;9.00;98.80;;;;;;5037672;28;20049;-86
2021/03/13 12:24:03;;;;;;;3.38;0.93;;;8.90;99.90;;;;;;5032229;28;20060;-86
2021/03/13 12:26:31;;;;;;;1.67;0.93;;;8.80;99.90;;;;;;5050667;28;20060;-87
2021/03/13 12:28:57;;;;;;;3.55;1.20;;;8.80;99.90;;;;;;5042521;28;20053;-87
2021/03/13 12:31:24;;;;;;;2.10;1.10;;;8.80;99.90;;;;;;5026293;28;20061;-86
2021/03/13 12:33:53;;;;;;;2.08;1.08;;;8.80;99.90;;;;;;5056155;28;20049;-87
2021/03/13 12:36:20;;;;;;;1.55;1.02;;;8.90;99.90;;;;;;5053973;28;20110;-88
2021/03/13 12:38:49;;;;;;;2.58;1.05;;;9.00;99.90;;;;;;5053708;28;20156;-86
2021/03/13 12:41:16;;;;;;;3.22;0.80;;;9.10;99.90;;;;;;5031253;28;20076;-87
2021/03/13 12:43:44;;;;;;;1.50;0.80;;;9.10;99.90;;;;;;5059219;28;20124;-87
2021/03/13 12:46:16;;;;;;;4.22;0.90;;;9.00;99.90;;;;;;5051698;28;20088;-87
2021/03/13 12:48:45;;;;;;;1.92;0.95;;;8.90;99.90;;;;;;5049709;28;20103;-87
2021/03/13 12:51:12;;;;;;;1.70;1.27;;;8.80;99.90;;;;;;5043376;28;20114;-88
2021/03/13 12:53:41;;;;;;;2.70;1.33;;;8.80;99.90;;;;;;5041197;28;20048;-87
2021/03/13 12:56:08;;;;;;;3.88;2.40;;;8.80;99.90;;;;;;5036438;28;20053;-87
2021/03/13 12:58:38;;;;;;;2.15;1.10;;;8.80;99.90;;;;;;5041720;28;20364;-87
2021/03/13 13:01:08;;;;;;;4.47;1.20;;;8.70;99.90;;;;;;5049029;28;20055;-86
2021/03/13 13:03:36;;;;;;;4.00;1.00;;;8.50;99.90;;;;;;5041876;28;20052;-86
2021/03/13 13:06:04;;;;;;;2.05;1.40;;;8.20;99.90;;;;;;5049213;28;20208;-86
2021/03/13 13:08:31;;;;;;;4.18;1.35;;;8.20;99.90;;;;;;5031011;28;20504;-86
2021/03/13 13:10:57;;;;;;;2.88;1.40;;;8.10;99.90;;;;;;5021480;28;20141;-87
2021/03/13 13:13:25;;;;;;;2.90;1.70;;;8.00;99.90;;;;;;5037320;28;20053;-88
2021/03/13 13:15:58;;;;;;;2.40;1.27;;;7.80;99.90;;;;;;5035171;28;20049;-87
2021/03/13 13:18:28;;;;;;;1.65;1.10;;;7.70;99.90;;;;;;5023899;28;20090;-87
2021/03/13 13:20:55;;;;;;;1.60;0.90;;;7.50;99.90;;;;;;5040643;28;20384;-85
2021/03/13 13:23:22;;;;;;;7.22;0.98;;;6.70;99.90;;;;;;5047612;28;20522;-86
2021/03/13 13:25:48;;;;;;;2.83;1.17;;;5.90;99.90;;;;;;5061539;28;20113;-88
2021/03/13 13:28:15;;;;;;;1.23;0.88;;;5.20;99.90;;;;;;5071556;28;20052;-87
2021/03/13 13:30:42;;;;;;;1.45;0.80;;;4.70;99.90;;;;;;5037934;28;20122;-89
2021/03/13 13:33:11;;;;;;;0.80;0.80;;;4.50;99.90;;;;;;5064919;28;20049;-90
2021/03/13 13:35:40;;;;;;;2.60;1.42;;;4.30;99.90;;;;;;5051492;28;20049;-89
2021/03/13 13:38:10;;;;;;;0.93;0.93;;;4.20;99.90;;;;;;5044636;28;20405;-89
2021/03/13 13:40:37;;;;;;;1.15;1.10;;;4.20;99.90;;;;;;5031436;28;20045;-88
2021/03/13 13:43:05;;;;;;;1.52;1.08;;;4.20;99.90;;;;;;5025590;28;20396;-89
2021/03/13 13:45:32;;;;;;;2.35;1.30;;;4.20;99.90;;;;;;5055104;28;20378;-89
2021/03/13 13:48:08;;;;;;;6.72;1.80;;;4.30;99.90;;;;;;5060226;28;20487;-87
2021/03/13 13:50:43;;;;;;;3.33;1.60;;;4.20;99.90;;;;;;5057463;28;20375;-89
2021/03/13 13:53:12;;;;;;;2.53;1.75;;;4.20;99.90;;;;;;5061764;28;20045;-87
2021/03/13 13:55:44;;;;;;;2.92;1.80;;;4.20;99.90;;;;;;5028111;28;20057;-88
2021/03/13 13:58:11;;;;;;;3.33;1.25;;;4.20;99.90;;;;;;5057033;28;20045;-87
2021/03/13 14:00:38;;;;;;;1.30;1.20;;;4.20;99.90;;;;;;5057948;28;20048;-87
2021/03/13 14:03:06;;;;;;;1.20;1.17;;;4.30;99.90;;;;;;5050510;28;20110;-90
2021/03/13 14:05:33;;;;;;;3.25;1.10;;;4.40;99.90;;;;;;5028202;28;20037;-88
2021/03/13 14:08:00;;;;;;;2.38;1.27;;;4.40;99.90;;;;;;5043748;28;20044;-88
2021/03/13 14:10:34;;;;;;;1.45;1.05;;;4.50;99.90;;;;;;5036051;28;20131;-88
2021/03/13 14:13:06;;;;;;;1.45;1.35;;;4.60;99.90;;;;;;5060723;28;20389;-88
2021/03/13 14:15:33;;;;;;;2.70;1.10;;;4.70;99.90;;;;;;5058917;28;20076;-87
2021/03/13 14:18:04;;;;;;;4.07;2.72;;;4.90;99.90;;;;;;5052056;28;20076;-88
2021/03/13 14:20:34;;;;;;;1.30;1.20;;;5.00;99.90;;;;;;5047086;28;20048;-88
2021/03/13 14:23:04;;;;;;;;;;;5.10;99.90;;;;;;5043563;28;20053;-87
2021/03/13 14:25:30;;;;;;;1.63;1.30;;;5.00;99.90;;;;;;5047863;28;19932;-88
2021/03/13 14:27:57;;;;;;;2.25;0.90;;;4.90;99.90;;;;;;5052952;28;20047;-88
2021/03/13 14:30:23;;;;;;;1.60;1.20;;;4.80;99.90;;;;;;5035160;28;20073;-90
2021/03/13 14:32:50;;;;;;;2.38;1.20;;;4.80;99.90;;;;;;5004383;28;20041;-90
2021/03/13 14:35:19;;;;;;;2.05;1.10;;;4.80;99.90;;;;;;5053199;28;20123;-88
2021/03/13 14:37:47;;;;;;;2.65;1.00;;;4.80;99.90;;;;;;5046686;28;20049;-88
2021/03/13 14:40:16;;;;;;;1.13;1.08;;;4.70;99.90;;;;;;5039524;28;20055;-87
2021/03/13 14:42:44;;;;;;;1.10;1.10;;;4.60;99.90;;;;;;5043150;28;20134;-86
2021/03/13 14:45:12;;;;;;;2.63;1.13;;;4.50;99.90;;;;;;5064325;28;20148;-87
2021/03/13 14:47:42;;;;;;;1.50;1.00;;;4.50;99.90;;;;;;5058727;28;20106;-88
2021/03/13 14:50:10;;;;;;;0.80;0.80;;;4.40;99.90;;;;;;5056342;28;20049;-87
2021/03/13 14:52:38;;;;;;;0.95;0.95;;;4.40;99.90;;;;;;5057127;28;20049;-87
2021/03/13 14:55:07;;;;;;;1.35;0.90;;;4.40;99.90;;;;;;5056092;28;20080;-87
2021/03/13 14:57:37;;;;;;;1.40;1.30;;;4.40;99.90;;;;;;5053985;28;20064;-87
2021/03/13 15:00:25;;;;;;;3.45;1.00;;;4.30;99.90;;;;;;5056143;28;20052;-87
2021/03/13 15:02:53;;;;;;;4.45;1.20;;;4.30;99.90;;;;;;5057254;28;20053;-87